createdAt,value
2024-01-25T00:02:37.474Z,87.86
2024-01-25T00:05:40.891Z,88.59
2024-01-25T00:08:45.445Z,88.39
2024-01-25T00:11:51.453Z,88.89
2024-01-25T00:14:56.158Z,88.84
2024-01-25T00:17:59.520Z,89.84
2024-01-25T00:21:04.000Z,89.83
2024-01-25T00:24:08.549Z,89.91
2024-01-25T00:27:11.736Z,89.96
2024-01-25T00:30:18.942Z,89.41
2024-01-25T00:33:22.128Z,89.89
2024-01-25T00:36:26.630Z,89.05
2024-01-25T00:39:30.057Z,88.15
2024-01-25T00:42:57.034Z,88.00
2024-01-25T00:46:01.780Z,87.23
2024-01-25T00:49:05.541Z,88.30
2024-01-25T00:52:09.745Z,88.25
2024-01-25T00:55:14.341Z,88.75
2024-01-25T00:58:19.161Z,89.24
2024-01-25T01:01:24.385Z,89.07
2024-01-25T01:04:31.111Z,90.18
2024-01-25T01:07:35.061Z,90.07
2024-01-25T01:10:38.177Z,90.21
2024-01-25T01:13:43.162Z,90.32
2024-01-25T01:16:46.253Z,90.16
2024-01-25T01:19:54.584Z,90.00
2024-01-25T01:22:57.997Z,89.28
2024-01-25T01:26:04.348Z,89.68
2024-01-25T01:29:07.332Z,89.65
2024-01-25T01:32:10.595Z,89.56
2024-01-25T01:35:13.399Z,89.74
2024-01-25T01:38:16.807Z,89.43
2024-01-25T01:41:19.638Z,89.82
2024-01-25T01:44:23.037Z,89.65
2024-01-25T01:47:26.203Z,89.87
2024-01-25T01:50:30.029Z,89.72
2024-01-25T01:53:34.783Z,88.45
2024-01-25T01:56:43.573Z,88.29
2024-01-25T01:59:48.260Z,88.98
2024-01-25T02:02:51.778Z,88.62
2024-01-25T02:05:56.269Z,87.55
2024-01-25T02:09:00.134Z,88.99
2024-01-25T02:12:04.309Z,88.28
2024-01-25T02:15:07.507Z,88.87
2024-01-25T02:18:11.352Z,89.72
2024-01-25T02:21:16.086Z,89.26
2024-01-25T02:24:19.410Z,88.92
2024-01-25T02:27:23.084Z,89.64
2024-01-25T02:30:26.667Z,88.51
2024-01-25T02:33:30.019Z,88.60
2024-01-25T02:36:33.606Z,87.85
2024-01-25T02:39:36.759Z,88.15
2024-01-25T02:42:40.627Z,87.91
2024-01-25T02:45:44.894Z,86.79
2024-01-25T02:48:48.722Z,86.18
2024-01-25T02:51:52.149Z,86.02
2024-01-25T02:54:55.726Z,86.39
2024-01-25T02:57:59.038Z,86.46
2024-01-25T03:01:03.713Z,86.03
2024-01-25T03:04:09.116Z,86.04
2024-01-25T03:07:12.855Z,86.31
2024-01-25T03:10:16.010Z,86.84
2024-01-25T03:13:20.808Z,87.70
2024-01-25T03:16:23.930Z,88.20
2024-01-25T03:19:28.861Z,88.56
2024-01-25T03:22:33.194Z,89.63
2024-01-25T03:25:36.524Z,90.42
2024-01-25T03:28:41.458Z,90.62
2024-01-25T03:31:47.643Z,91.43
2024-01-25T03:34:50.888Z,91.95
2024-01-25T03:37:54.400Z,92.07
2024-01-25T03:41:00.122Z,92.62
2024-01-25T03:44:04.634Z,92.98
2024-01-25T03:47:07.646Z,93.65
2024-01-25T03:50:11.214Z,93.55
2024-01-25T03:53:14.736Z,94.36
2024-01-25T03:56:20.945Z,93.68
2024-01-25T03:59:24.024Z,94.36
2024-01-25T04:02:28.119Z,93.66
2024-01-25T04:05:31.584Z,94.17
2024-01-25T04:08:34.811Z,92.50
2024-01-25T04:11:38.948Z,93.19
2024-01-25T04:14:42.912Z,92.74
2024-01-25T04:17:46.250Z,90.96
2024-01-25T04:20:50.935Z,90.96
2024-01-25T04:23:55.583Z,90.77
2024-01-25T04:26:58.658Z,89.89
2024-01-25T04:30:04.967Z,89.55
2024-01-25T04:33:08.168Z,88.15
2024-01-25T04:36:11.892Z,88.11
2024-01-25T04:39:15.463Z,88.53
2024-01-25T04:42:19.306Z,88.16
2024-01-25T04:45:22.370Z,87.60
2024-01-25T04:48:25.821Z,87.90
2024-01-25T04:51:29.293Z,88.19
2024-01-25T04:54:32.644Z,87.33
2024-01-25T04:57:35.820Z,88.01
2024-01-25T05:00:41.353Z,88.55
2024-01-25T05:03:45.438Z,89.26
2024-01-25T05:06:49.028Z,90.21
2024-01-25T05:09:53.581Z,91.65
2024-01-25T05:12:58.444Z,92.24
2024-01-25T05:16:04.595Z,95.69
2024-01-25T05:19:08.135Z,95.90
2024-01-25T05:22:11.544Z,97.15
2024-01-25T05:25:14.969Z,99.16
2024-01-25T05:28:18.086Z,98.52
2024-01-25T05:31:21.763Z,98.22
2024-01-25T05:34:26.272Z,97.10
2024-01-25T05:37:29.785Z,96.75
2024-01-25T05:40:32.965Z,95.91
2024-01-25T05:43:36.321Z,95.26
2024-01-25T05:46:40.303Z,94.71
2024-01-25T05:49:43.789Z,95.00
2024-01-25T05:52:47.016Z,94.94
2024-01-25T05:55:50.486Z,94.89
2024-01-25T05:58:56.031Z,94.35
2024-01-25T06:02:02.385Z,94.57
2024-01-25T06:05:06.140Z,95.49
2024-01-25T06:08:09.531Z,95.31
2024-01-25T06:11:12.889Z,95.97
2024-01-25T06:14:16.502Z,96.78
2024-01-25T06:17:19.806Z,97.88
2024-01-25T06:20:23.009Z,98.10
2024-01-25T06:23:26.664Z,97.62
2024-01-25T06:26:29.691Z,96.97
2024-01-25T06:29:33.069Z,97.04
2024-01-25T06:32:38.369Z,96.88
2024-01-25T06:35:41.794Z,95.13
2024-01-25T06:38:46.839Z,95.35
2024-01-25T06:41:50.083Z,95.04
2024-01-25T06:44:53.787Z,95.83
2024-01-25T06:47:59.990Z,96.07
2024-01-25T06:51:03.558Z,95.21
2024-01-25T06:54:07.259Z,94.97
2024-01-25T06:57:11.572Z,93.08
2024-01-25T07:00:19.818Z,92.59
2024-01-25T07:03:25.598Z,90.69
2024-01-25T07:06:31.871Z,91.09
2024-01-25T07:09:34.968Z,90.79
2024-01-25T07:12:38.344Z,90.47
2024-01-25T07:15:42.651Z,90.76
2024-01-25T07:18:47.580Z,89.64
2024-01-25T07:21:51.278Z,90.31
2024-01-25T07:24:54.893Z,90.74
2024-01-25T07:28:01.226Z,91.32
2024-01-25T07:31:05.733Z,92.44
2024-01-25T07:34:08.884Z,92.45
2024-01-25T07:37:13.746Z,91.98
2024-01-25T07:40:16.859Z,91.91
2024-01-25T07:43:20.234Z,93.42
2024-01-25T07:46:25.484Z,93.53
2024-01-25T07:49:29.386Z,92.33
2024-01-25T07:52:32.928Z,90.58
2024-01-25T07:55:36.447Z,89.01
2024-01-25T07:58:40.826Z,89.10
2024-01-25T08:01:44.239Z,90.23
2024-01-25T08:04:49.202Z,90.10
2024-01-25T08:07:52.975Z,91.39
2024-01-25T08:10:56.389Z,93.00
2024-01-25T08:13:59.801Z,92.50
2024-01-25T08:17:04.261Z,92.52
2024-01-25T08:20:10.394Z,92.50
2024-01-25T08:23:15.762Z,92.66
2024-01-25T08:26:20.271Z,93.82
2024-01-25T08:29:23.606Z,94.06
2024-01-25T08:32:27.541Z,94.19
2024-01-25T08:35:34.263Z,93.91
2024-01-25T08:38:38.714Z,93.89
2024-01-25T08:41:43.600Z,93.95
2024-01-25T08:44:50.801Z,93.88
2024-01-25T08:47:57.474Z,92.04
2024-01-25T08:51:01.349Z,92.39
2024-01-25T08:54:05.132Z,91.73
2024-01-25T08:57:08.161Z,90.64
2024-01-25T09:00:12.061Z,89.59
2024-01-25T09:03:18.164Z,90.26
2024-01-25T09:06:21.728Z,88.07
2024-01-25T09:09:24.906Z,87.02
2024-01-25T09:12:29.906Z,86.78
2024-01-25T09:15:33.064Z,83.95
2024-01-25T09:18:36.641Z,83.18
2024-01-25T09:21:42.237Z,83.86
2024-01-25T09:24:46.122Z,84.15
2024-01-25T09:27:49.893Z,82.73
2024-01-25T09:30:54.092Z,83.52
2024-01-25T09:34:00.776Z,82.78
2024-01-25T09:37:05.016Z,82.80
2024-01-25T09:40:09.207Z,82.35
2024-01-25T09:43:13.616Z,82.45
2024-01-25T09:46:17.370Z,82.26
2024-01-25T09:49:22.203Z,80.87
2024-01-25T09:52:29.042Z,78.63
2024-01-25T09:55:34.568Z,78.48
2024-01-25T09:58:43.945Z,77.23
2024-01-25T10:01:50.048Z,77.36
2024-01-25T10:04:56.845Z,75.61
2024-01-25T10:08:02.926Z,75.18
2024-01-25T10:11:07.418Z,75.66
2024-01-25T10:14:10.488Z,75.75
2024-01-25T10:17:14.070Z,75.38
2024-01-25T10:20:18.464Z,74.86
2024-01-25T10:23:23.891Z,74.69
2024-01-25T10:26:31.775Z,74.99
2024-01-25T10:29:36.078Z,76.35
2024-01-25T10:32:44.574Z,75.39
2024-01-25T10:35:51.665Z,73.72
2024-01-25T10:38:56.259Z,73.83
2024-01-25T10:42:02.961Z,73.64
2024-01-25T10:45:06.905Z,74.88
2024-01-25T10:48:10.211Z,75.13
2024-01-25T10:51:19.881Z,75.28
2024-01-25T10:54:23.441Z,75.24
2024-01-25T10:57:27.420Z,74.65
2024-01-25T11:00:32.960Z,73.41
2024-01-25T11:03:37.449Z,74.01
2024-01-25T11:06:40.934Z,72.44
2024-01-25T11:09:49.718Z,71.38
2024-01-25T11:12:58.668Z,70.83
2024-01-25T11:16:17.937Z,71.46
2024-01-25T11:19:22.899Z,71.92
2024-01-25T11:22:35.536Z,71.31
2024-01-25T11:25:39.386Z,70.31
2024-01-25T11:28:46.398Z,69.81
2024-01-25T11:31:53.169Z,68.54
2024-01-25T11:35:03.121Z,67.84
2024-01-25T11:38:06.449Z,65.94
2024-01-25T11:41:10.726Z,66.45
2024-01-25T11:44:14.978Z,65.89
2024-01-25T11:47:26.856Z,64.71
2024-01-25T11:50:31.982Z,63.02
2024-01-25T11:53:35.845Z,62.47
2024-01-25T11:56:43.532Z,62.34
2024-01-25T11:59:48.987Z,62.01
2024-01-25T12:02:54.417Z,60.42
2024-01-25T12:06:00.541Z,59.71
2024-01-25T12:09:11.056Z,59.63
2024-01-25T12:12:17.466Z,59.63
2024-01-25T12:15:21.557Z,59.06
2024-01-25T12:18:25.014Z,58.10
2024-01-25T12:21:28.700Z,58.75
2024-01-25T12:24:35.469Z,58.30
2024-01-25T12:27:42.399Z,57.91
2024-01-25T12:30:45.886Z,57.08
2024-01-25T12:33:48.917Z,57.46
2024-01-25T12:36:57.198Z,55.57
2024-01-25T12:40:02.345Z,53.19
2024-01-25T12:43:05.990Z,54.04
2024-01-25T12:46:18.354Z,53.13
2024-01-25T12:49:30.061Z,54.37
2024-01-25T12:52:33.704Z,53.23
2024-01-25T12:55:38.853Z,53.74
2024-01-25T12:58:42.116Z,53.76
2024-01-25T13:01:45.816Z,53.83
2024-01-25T13:04:49.313Z,55.11
2024-01-25T13:07:53.294Z,54.80
2024-01-25T13:10:56.510Z,57.05
2024-01-25T13:14:02.670Z,60.66
2024-01-25T13:17:05.868Z,61.54
2024-01-25T13:20:09.786Z,61.26
2024-01-25T13:23:12.791Z,60.96
2024-01-25T13:26:16.127Z,62.69
2024-01-25T13:29:19.137Z,62.55
2024-01-25T13:32:23.960Z,63.62
2024-01-25T13:35:27.244Z,65.34
2024-01-25T13:38:30.824Z,65.28
2024-01-25T13:41:34.457Z,65.46
2024-01-25T13:44:39.764Z,66.41
2024-01-25T13:47:45.803Z,68.01
2024-01-25T13:50:49.788Z,68.02
2024-01-25T13:53:52.998Z,68.75
2024-01-25T13:56:56.965Z,68.48
2024-01-25T14:00:00.003Z,68.27
2024-01-25T14:03:06.853Z,69.46
2024-01-25T14:06:13.983Z,69.49
2024-01-25T14:09:17.443Z,69.88
2024-01-25T14:12:21.118Z,70.05
2024-01-25T14:15:25.797Z,70.22
2024-01-25T14:18:31.393Z,70.79
2024-01-25T14:21:34.455Z,71.16
2024-01-25T14:24:38.711Z,71.45
2024-01-25T14:27:42.701Z,71.17
2024-01-25T14:30:47.561Z,71.32
2024-01-25T14:33:50.971Z,70.73
2024-01-25T14:36:54.830Z,71.22
2024-01-25T14:40:09.065Z,70.97
2024-01-25T14:43:22.304Z,69.74
2024-01-25T14:46:25.374Z,68.34
2024-01-25T14:49:31.814Z,69.15
2024-01-25T14:52:35.383Z,67.92
2024-01-25T14:55:39.618Z,67.72
2024-01-25T14:58:44.986Z,68.55
2024-01-25T15:01:50.122Z,68.63
2024-01-25T15:04:53.333Z,68.96
2024-01-25T15:07:57.957Z,69.08
2024-01-25T15:11:01.406Z,69.46
2024-01-25T15:14:05.619Z,67.82
2024-01-25T15:17:08.753Z,67.70
2024-01-25T15:20:12.492Z,68.08
2024-01-25T15:23:15.626Z,68.37
2024-01-25T15:26:19.146Z,68.09
2024-01-25T15:29:22.201Z,70.41
2024-01-25T15:32:25.589Z,70.69
2024-01-25T15:35:28.541Z,70.89
2024-01-25T15:38:32.096Z,71.12
2024-01-25T15:41:35.067Z,71.42
2024-01-25T15:44:38.504Z,71.59
2024-01-25T15:47:43.571Z,72.21
2024-01-25T15:50:47.150Z,71.62
2024-01-25T15:53:50.921Z,71.83
2024-01-25T15:56:54.276Z,71.99
2024-01-25T15:59:57.354Z,72.12
2024-01-25T16:03:01.384Z,72.30
2024-01-25T16:06:05.009Z,72.35
2024-01-25T16:09:08.168Z,73.45
2024-01-25T16:12:12.418Z,72.59
2024-01-25T16:15:15.598Z,73.87
2024-01-25T16:18:19.361Z,73.33
2024-01-25T16:21:24.451Z,73.36
2024-01-25T16:24:29.650Z,73.98
2024-01-25T16:27:35.580Z,73.78
2024-01-25T16:30:39.079Z,74.39
2024-01-25T16:33:42.294Z,75.26
2024-01-25T16:36:45.804Z,75.54
2024-01-25T16:39:49.113Z,75.31
2024-01-25T16:42:52.572Z,75.54
2024-01-25T16:45:55.811Z,75.53
2024-01-25T16:48:59.394Z,74.95
2024-01-25T16:52:02.504Z,74.77
2024-01-25T16:55:06.312Z,75.55
2024-01-25T16:58:09.517Z,75.92
2024-01-25T17:01:13.067Z,75.55
2024-01-25T17:04:16.890Z,76.19
2024-01-25T17:07:20.307Z,75.96
2024-01-25T17:10:24.180Z,76.45
2024-01-25T17:13:27.520Z,75.41
2024-01-25T17:16:30.594Z,77.21
2024-01-25T17:19:34.197Z,77.12
2024-01-25T17:22:37.912Z,78.41
2024-01-25T17:25:42.707Z,78.78
2024-01-25T17:28:45.879Z,79.49
2024-01-25T17:31:49.522Z,79.50
2024-01-25T17:34:52.759Z,80.52
2024-01-25T17:37:56.772Z,80.26
2024-01-25T17:41:00.017Z,80.51
2024-01-25T17:44:03.519Z,80.28
2024-01-25T17:47:06.889Z,80.53
2024-01-25T17:50:13.327Z,79.73
2024-01-25T17:53:18.770Z,79.38
2024-01-25T17:56:22.650Z,80.16
2024-01-25T17:59:28.398Z,80.71
2024-01-25T18:02:32.483Z,81.47
2024-01-25T18:05:36.548Z,80.71
2024-01-25T18:08:40.326Z,81.42
2024-01-25T18:11:46.543Z,81.79
2024-01-25T18:14:49.945Z,82.01
2024-01-25T18:17:53.956Z,82.01
2024-01-25T18:20:57.775Z,81.48
2024-01-25T18:24:03.004Z,81.87
2024-01-25T18:27:07.097Z,81.64
2024-01-25T18:30:15.455Z,80.94
2024-01-25T18:33:19.718Z,81.29
2024-01-25T18:36:24.243Z,81.31
2024-01-25T18:39:32.916Z,81.82
2024-01-25T18:42:44.737Z,82.54
2024-01-25T18:45:53.879Z,82.99
2024-01-25T18:49:00.644Z,83.93
2024-01-25T18:52:10.808Z,83.82
2024-01-25T18:55:16.834Z,84.04
2024-01-25T18:58:23.410Z,84.10
2024-01-25T19:01:31.538Z,83.60
2024-01-25T19:04:40.013Z,83.71
2024-01-25T19:07:49.463Z,83.65
2024-01-25T19:10:57.420Z,83.61
2024-01-25T19:14:07.082Z,84.02
2024-01-25T19:17:14.798Z,84.70
2024-01-25T19:20:20.602Z,84.70
2024-01-25T19:23:25.723Z,85.13
2024-01-25T19:26:32.180Z,85.77
2024-01-25T19:29:37.404Z,86.35
2024-01-25T19:32:42.725Z,86.47
2024-01-25T19:35:53.318Z,86.89
2024-01-25T19:39:00.420Z,87.33
2024-01-25T19:42:05.078Z,87.79
2024-01-25T19:45:10.707Z,87.84
2024-01-25T19:48:34.390Z,87.98
2024-01-25T19:51:41.660Z,88.73
2024-01-25T19:54:48.591Z,89.21
2024-01-25T19:57:59.495Z,89.38
2024-01-25T20:01:07.566Z,90.42
2024-01-25T20:04:13.120Z,90.31
2024-01-25T20:07:19.025Z,91.34
2024-01-25T20:10:25.244Z,91.27
2024-01-25T20:13:30.590Z,90.81
2024-01-25T20:16:42.220Z,90.83
2024-01-25T20:19:48.285Z,90.63
2024-01-25T20:22:54.041Z,90.15
2024-01-25T20:25:59.315Z,90.73
2024-01-25T20:29:04.800Z,90.66
2024-01-25T20:32:09.683Z,89.91
2024-01-25T20:35:15.295Z,90.15
2024-01-25T20:38:20.181Z,89.83
2024-01-25T20:41:26.125Z,89.50
2024-01-25T20:44:33.188Z,89.16
2024-01-25T20:47:38.188Z,89.69
2024-01-25T20:50:42.636Z,89.14
2024-01-25T20:53:54.036Z,89.24
2024-01-25T20:57:04.779Z,89.71
2024-01-25T21:00:10.747Z,90.72
2024-01-25T21:03:15.851Z,90.65
2024-01-25T21:06:22.540Z,90.52
2024-01-25T21:09:26.121Z,90.42
2024-01-25T21:12:31.027Z,90.00
2024-01-25T21:15:34.858Z,90.11
2024-01-25T21:18:38.382Z,90.00
2024-01-25T21:21:41.687Z,90.08
2024-01-25T21:24:45.082Z,89.86
2024-01-25T21:27:48.177Z,90.40
2024-01-25T21:30:51.623Z,90.80
2024-01-25T21:33:56.700Z,90.71
2024-01-25T21:37:01.857Z,91.61
2024-01-25T21:40:07.499Z,91.93
2024-01-25T21:43:12.363Z,91.86
2024-01-25T21:46:15.690Z,92.23
2024-01-25T21:49:20.636Z,92.60
2024-01-25T21:52:25.118Z,92.89
2024-01-25T21:55:28.402Z,93.30
2024-01-25T21:58:31.442Z,93.72
2024-01-25T22:01:35.395Z,94.27
2024-01-25T22:04:40.770Z,94.33
2024-01-25T22:07:44.037Z,94.27
2024-01-25T22:10:47.602Z,93.78
2024-01-25T22:13:54.971Z,93.89
2024-01-25T22:16:58.293Z,94.45
2024-01-25T22:20:01.500Z,93.96
2024-01-25T22:23:07.141Z,94.31
2024-01-25T22:26:11.680Z,93.87
2024-01-25T22:29:15.011Z,94.95
2024-01-25T22:32:18.054Z,94.91
2024-01-25T22:35:21.394Z,95.03
2024-01-25T22:38:24.694Z,95.60
2024-01-25T22:41:28.754Z,95.37
2024-01-25T22:44:31.706Z,95.57
2024-01-25T22:47:35.205Z,95.87
2024-01-25T22:50:38.301Z,96.30
2024-01-25T22:53:41.635Z,96.41
2024-01-25T22:56:46.387Z,97.01
2024-01-25T22:59:50.924Z,97.62
2024-01-25T23:02:57.105Z,98.42
2024-01-25T23:06:00.586Z,99.04
2024-01-25T23:09:05.728Z,98.31
2024-01-25T23:12:09.977Z,98.98
2024-01-25T23:15:13.200Z,99.51
2024-01-25T23:18:16.894Z,99.47
2024-01-25T23:21:23.010Z,99.01
2024-01-25T23:24:26.420Z,98.85
2024-01-25T23:27:29.574Z,99.37
2024-01-25T23:30:32.922Z,99.79
2024-01-25T23:33:36.143Z,99.92
2024-01-25T23:36:39.621Z,99.75
2024-01-25T23:39:44.465Z,100.00
2024-01-25T23:42:48.218Z,100.00
2024-01-25T23:45:52.361Z,100.00
2024-01-25T23:48:57.440Z,100.00
2024-01-25T23:52:00.856Z,100.00
2024-01-25T23:55:04.550Z,100.00
2024-01-25T23:58:07.868Z,100.00
